Babb, Montana
Current Conditions -  °F | °C
As of 9:56 PM on Saturday 20 Dec 2014 (Local Time) from KCTB Reporting Station
Clear Clear  
Wind Chill: 26°   Ceiling: Unl
Heat Index: 32°   Visibility: 10mi
Dew Point: 24°   Wind: 7mph
Humidity: 73%   Direction: 180°S
Pressure: 29.5"   Gusts: NA
Location:  48.85°N, 113.44°W
Report Text: KCTB 210456Z AUTO 18006KT 10SM CLR 00/M04 A2950 RMK AO2 SLP014 T00001044
Loading
Personal Weather Stations






























Interactive Weather Map New forecast layout! Learn more

10-Day Weather Forecast

Advertisements
Track Severe Weather on mobile